Terminal Aerodrome Forecast
Issued by NWS Blacksburg, VA

Home | Current Version | Previous Version | Text Only | Print | Product List | Glossary On
Versions: 1 2 3 4 5 6 7 8 9 10 11 12 13 14 15 16 17 18 19 20 21 22
000
FTUS41 KRNK 010522
TAFBLF
TAF
KBLF 010522Z 0106/0206 31006KT 6SM -RA BR OVC004
     FM010700 31006KT 5SM -SN BR OVC004
     FM011200 34008KT 2SM -SHSN BR OVC008
     FM011600 33011G22KT 5SM -RA BR SCT006 OVC020
     FM012300 33012KT 6SM -RA SCT006 OVC030
     FM020300 31010KT P6SM -SHSN OVC007=

USA.gov is the U.S. government's official web portal to all federal, state and local government web resources and services.